Kuzguncuk — TCAZ7 — position and weather

sailwx.info

Track history (hours):
 
Tides and Currents Weather Stations Pressure Air Temp Water Temp Dewpoint Dewpoint Depression Visibility Wind Speed Wind Dir Waves Ship Positions

Kuzguncuk

Last reported at 2017-Oct-18 12:29 UTC. Time now 2017-Oct-18 12:44 UTC.
Position N 46°31' E 030°44'.

Length 99 m; draft 4.9 m.

Type: Tanker. MMSI: 271000882.

Date/timePositionNaut miles runAvg speedWind from/ knotsBaromVisibWave heightAir tempDewpointWater temp
2017-Oct-18 12:29N 46°31' E 030°44'0 0.0
2017-Oct-18 11:56N 46°31' E 030°44'0 0.0
2017-Oct-18 11:29N 46°31' E 030°44'0 0.0
2017-Oct-18 10:50N 46°31' E 030°44'0 0.0
2017-Oct-18 10:29N 46°31' E 030°44'0 0.0
2017-Oct-18 09:59N 46°31' E 030°44'0 0.0
2017-Oct-18 09:23N 46°31' E 030°44'0 0.0
2017-Oct-18 08:59N 46°31' E 030°44'0 0.0
2017-Oct-18 08:29N 46°31' E 030°44'0 0.0
2017-Oct-18 07:59N 46°31' E 030°44'0 0.0
2017-Oct-18 07:23N 46°31' E 030°44'0 0.0
2017-Oct-18 06:47N 46°31' E 030°44'0 0.0
2017-Oct-18 06:29N 46°31' E 030°44'0 0.0
2017-Oct-18 05:53N 46°31' E 030°44'0 0.0
2017-Oct-18 05:29N 46°31' E 030°44'0 0.0
2017-Oct-18 04:56N 46°31' E 030°44'0 0.0
2017-Oct-18 04:26N 46°31' E 030°44'0 0.0
2017-Oct-18 03:56N 46°31' E 030°44'0 0.0
2017-Oct-18 03:20N 46°31' E 030°44'0 0.0
2017-Oct-18 02:56N 46°31' E 030°44'0 0.0
2017-Oct-18 02:29N 46°31' E 030°44'0 0.0
2017-Oct-18 01:59N 46°31' E 030°44'0 0.0
2017-Oct-18 00:55N 46°31' E 030°44'0 0.0
2017-Oct-18 00:25N 46°31' E 030°44'0 0.0
2017-Oct-17 23:55N 46°31' E 030°44'0 0.0
2017-Oct-17 23:28N 46°31' E 030°44'0 0.0
2017-Oct-17 22:58N 46°31' E 030°44'0 0.0
2017-Oct-17 22:28N 46°31' E 030°44'0 0.0
2017-Oct-17 21:58N 46°31' E 030°44'0 0.0
2017-Oct-17 21:28N 46°31' E 030°44'0 0.0
2017-Oct-17 20:46N 46°31' E 030°44'0 0.0
2017-Oct-17 20:25N 46°31' E 030°44'0 0.0
2017-Oct-17 19:55N 46°31' E 030°44'0 0.0
2017-Oct-17 19:28N 46°31' E 030°44'0 0.0
2017-Oct-17 18:58N 46°31' E 030°44'0 0.0
2017-Oct-17 18:28N 46°31' E 030°44'0 0.0
2017-Oct-17 17:58N 46°31' E 030°44'0 0.0
2017-Oct-17 17:22N 46°31' E 030°44'0 0.0
2017-Oct-17 16:58N 46°31' E 030°44'0 0.0
2017-Oct-17 16:25N 46°31' E 030°44'0 0.0
2017-Oct-17 15:58N 46°31' E 030°44'0 0.0
2017-Oct-17 15:13N 46°31' E 030°44'0 0.0
2017-Oct-17 14:58N 46°31' E 030°44'0 0.0
2017-Oct-17 14:28N 46°31' E 030°44'0 0.0
2017-Oct-17 13:58N 46°31' E 030°44'0 0.0
2017-Oct-17 13:28N 46°31' E 030°44'0 0.0
2017-Oct-17 12:58N 46°31' E 030°44'0 0.0
2017-Oct-17 12:22N 46°31' E 030°44'0 0.0
2017-Oct-17 11:58N 46°31' E 030°44'0 0.0
2017-Oct-17 11:28N 46°31' E 030°44'0 0.0
2017-Oct-17 10:58N 46°31' E 030°44'0 0.0
2017-Oct-17 10:28N 46°31' E 030°44'1 2.6
2017-Oct-17 10:00N 46°30' E 030°46'3 6.6
2017-Oct-17 09:31N 46°29' E 030°50'713.5
2017-Oct-17 09:00N 46°22' E 030°53'8013.5
2017-Oct-17 03:05N 45°04' E 030°28'114.0
2017-Oct-17 03:00N 45°03' E 030°27'714.1
2017-Oct-17 02:30N 44°57' E 030°22'714.1
2017-Oct-17 02:01N 44°51' E 030°16'713.8
2017-Oct-17 01:30N 44°45' E 030°11'714.2
2017-Oct-17 01:00N 44°39' E 030°05'714.1
2017-Oct-17 00:30N 44°34' E 029°60'714.0
2017-Oct-17 00:00N 44°28' E 029°54'713.5
2017-Oct-16 23:30N 44°22' E 029°49'714.2
2017-Oct-16 23:00N 44°17' E 029°43'714.1
2017-Oct-16 22:30N 44°11' E 029°38'714.1
2017-Oct-16 22:00N 44°05' E 029°32'714.2
2017-Oct-16 21:30N 43°59' E 029°26'714.1
2017-Oct-16 21:00N 43°53' E 029°21'714.1
2017-Oct-16 20:30N 43°48' E 029°15'714.0
2017-Oct-16 20:00N 43°42' E 029°10'714.3
2017-Oct-16 19:30N 43°36' E 029°04'1014.1
2017-Oct-16 18:46N 43°27' E 028°57'514.1
2017-Oct-16 18:25N 43°23' E 028°53'  
2017-Oct-13 13:36N 40°59' E 028°60'2 8.4
2017-Oct-13 13:21N 40°57' E 028°59'15 0.4
2017-Oct-12 00:10N 40°43' E 029°05'0 0.6
2017-Oct-11 23:46N 40°43' E 029°05'0 0.3
2017-Oct-11 23:30N 40°43' E 029°05'5 9.6
2017-Oct-11 23:00N 40°43' E 028°59'286 6.8
2017-Oct-10 05:12N 36°05' E 030°25'314.1
2017-Oct-10 05:00N 36°05' E 030°28'  
Track history (hours):
 
Tides and Currents Weather Stations Pressure Air Temp Water Temp Dewpoint Dewpoint Depression Visibility Wind Speed Wind Dir Waves Ship Positions

Kuzguncuk

Last reported at 2017-Oct-18 12:29 UTC. Time now 2017-Oct-18 12:44 UTC.
Position N 46°31' E 030°44'.

Length 99 m; draft 4.9 m.

Type: Tanker. MMSI: 271000882.

Date/timePositionNaut miles runAvg speedWind from/ knotsBaromVisibWave heightAir tempDewpointWater temp
2017-Oct-18 12:29N 46°31' E 030°44'0 0.0
2017-Oct-18 11:56N 46°31' E 030°44'0 0.0
2017-Oct-18 11:29N 46°31' E 030°44'0 0.0
2017-Oct-18 10:50N 46°31' E 030°44'0 0.0
2017-Oct-18 10:29N 46°31' E 030°44'0 0.0
2017-Oct-18 09:59N 46°31' E 030°44'0 0.0
2017-Oct-18 09:23N 46°31' E 030°44'0 0.0
2017-Oct-18 08:59N 46°31' E 030°44'0 0.0
2017-Oct-18 08:29N 46°31' E 030°44'0 0.0
2017-Oct-18 07:59N 46°31' E 030°44'0 0.0
2017-Oct-18 07:23N 46°31' E 030°44'0 0.0
2017-Oct-18 06:47N 46°31' E 030°44'0 0.0
2017-Oct-18 06:29N 46°31' E 030°44'0 0.0
2017-Oct-18 05:53N 46°31' E 030°44'0 0.0
2017-Oct-18 05:29N 46°31' E 030°44'0 0.0
2017-Oct-18 04:56N 46°31' E 030°44'0 0.0
2017-Oct-18 04:26N 46°31' E 030°44'0 0.0
2017-Oct-18 03:56N 46°31' E 030°44'0 0.0
2017-Oct-18 03:20N 46°31' E 030°44'0 0.0
2017-Oct-18 02:56N 46°31' E 030°44'0 0.0
2017-Oct-18 02:29N 46°31' E 030°44'0 0.0
2017-Oct-18 01:59N 46°31' E 030°44'0 0.0
2017-Oct-18 00:55N 46°31' E 030°44'0 0.0
2017-Oct-18 00:25N 46°31' E 030°44'0 0.0
2017-Oct-17 23:55N 46°31' E 030°44'0 0.0
2017-Oct-17 23:28N 46°31' E 030°44'0 0.0
2017-Oct-17 22:58N 46°31' E 030°44'0 0.0
2017-Oct-17 22:28N 46°31' E 030°44'0 0.0
2017-Oct-17 21:58N 46°31' E 030°44'0 0.0
2017-Oct-17 21:28N 46°31' E 030°44'0 0.0
2017-Oct-17 20:46N 46°31' E 030°44'0 0.0
2017-Oct-17 20:25N 46°31' E 030°44'0 0.0
2017-Oct-17 19:55N 46°31' E 030°44'0 0.0
2017-Oct-17 19:28N 46°31' E 030°44'0 0.0
2017-Oct-17 18:58N 46°31' E 030°44'0 0.0
2017-Oct-17 18:28N 46°31' E 030°44'0 0.0
2017-Oct-17 17:58N 46°31' E 030°44'0 0.0
2017-Oct-17 17:22N 46°31' E 030°44'0 0.0
2017-Oct-17 16:58N 46°31' E 030°44'0 0.0
2017-Oct-17 16:25N 46°31' E 030°44'0 0.0
2017-Oct-17 15:58N 46°31' E 030°44'0 0.0
2017-Oct-17 15:13N 46°31' E 030°44'0 0.0
2017-Oct-17 14:58N 46°31' E 030°44'0 0.0
2017-Oct-17 14:28N 46°31' E 030°44'0 0.0
2017-Oct-17 13:58N 46°31' E 030°44'0 0.0
2017-Oct-17 13:28N 46°31' E 030°44'0 0.0
2017-Oct-17 12:58N 46°31' E 030°44'0 0.0
2017-Oct-17 12:22N 46°31' E 030°44'0 0.0
2017-Oct-17 11:58N 46°31' E 030°44'0 0.0
2017-Oct-17 11:28N 46°31' E 030°44'0 0.0
2017-Oct-17 10:58N 46°31' E 030°44'0 0.0
2017-Oct-17 10:28N 46°31' E 030°44'1 2.6
2017-Oct-17 10:00N 46°30' E 030°46'3 6.6
2017-Oct-17 09:31N 46°29' E 030°50'713.5
2017-Oct-17 09:00N 46°22' E 030°53'8013.5
2017-Oct-17 03:05N 45°04' E 030°28'114.0
2017-Oct-17 03:00N 45°03' E 030°27'714.1
2017-Oct-17 02:30N 44°57' E 030°22'714.1
2017-Oct-17 02:01N 44°51' E 030°16'713.8
2017-Oct-17 01:30N 44°45' E 030°11'714.2
2017-Oct-17 01:00N 44°39' E 030°05'714.1
2017-Oct-17 00:30N 44°34' E 029°60'714.0
2017-Oct-17 00:00N 44°28' E 029°54'713.5
2017-Oct-16 23:30N 44°22' E 029°49'714.2
2017-Oct-16 23:00N 44°17' E 029°43'714.1
2017-Oct-16 22:30N 44°11' E 029°38'714.1
2017-Oct-16 22:00N 44°05' E 029°32'714.2
2017-Oct-16 21:30N 43°59' E 029°26'714.1
2017-Oct-16 21:00N 43°53' E 029°21'714.1
2017-Oct-16 20:30N 43°48' E 029°15'714.0
2017-Oct-16 20:00N 43°42' E 029°10'714.3
2017-Oct-16 19:30N 43°36' E 029°04'1014.1
2017-Oct-16 18:46N 43°27' E 028°57'514.1
2017-Oct-16 18:25N 43°23' E 028°53'  
2017-Oct-13 13:36N 40°59' E 028°60'2 8.4
2017-Oct-13 13:21N 40°57' E 028°59'15 0.4
2017-Oct-12 00:10N 40°43' E 029°05'0 0.6
2017-Oct-11 23:46N 40°43' E 029°05'0 0.3
2017-Oct-11 23:30N 40°43' E 029°05'5 9.6
2017-Oct-11 23:00N 40°43' E 028°59'286 6.8
2017-Oct-10 05:12N 36°05' E 030°25'314.1
2017-Oct-10 05:00N 36°05' E 030°28'  

Dump ship's entire track history